Time;durP1;ratioP1;P1;durP2;ratioP2;P2;SDS_P1;SDS_P2;PMS_P1;PMS_P2;Temp;Humidity;BMP_temperature;BMP_pressure;BME280_temperature;BME280_humidity;BME280_pressure;Samples;Min_cycle;Max_cycle;Signal;HPM_P1;HPM_P2
2022/02/26 00:00:24;;;;;;;9.63;2.83;;;5.50;99.90;;;;;;5138816;28;20979;-56
2022/02/26 00:02:52;;;;;;;11.13;4.80;;;5.60;99.90;;;;;;5138963;28;20476;-53
2022/02/26 00:05:20;;;;;;;9.83;2.40;;;5.60;99.90;;;;;;5138988;28;20487;-53
2022/02/26 00:07:47;;;;;;;12.50;3.67;;;5.60;99.90;;;;;;5138906;28;20455;-58
2022/02/26 00:10:14;;;;;;;15.20;2.87;;;5.70;99.90;;;;;;5138893;28;20429;-58
2022/02/26 00:12:41;;;;;;;19.70;4.80;;;5.70;99.90;;;;;;5138910;28;20428;-50
2022/02/26 00:15:08;;;;;;;6.23;2.47;;;5.70;99.90;;;;;;5138413;28;20486;-56
2022/02/26 00:17:35;;;;;;;10.57;2.40;;;5.70;99.90;;;;;;5137825;28;20456;-52
2022/02/26 00:20:04;;;;;;;13.70;3.27;;;5.60;99.90;;;;;;5138427;28;20439;-55
2022/02/26 00:22:31;;;;;;;10.87;2.30;;;5.60;99.90;;;;;;5138647;28;20425;-55
2022/02/26 00:24:58;;;;;;;12.50;3.13;;;5.90;99.90;;;;;;5138204;28;20441;-54
2022/02/26 00:27:25;;;;;;;4.10;2.03;;;5.60;99.90;;;;;;5138434;28;20504;-54
2022/02/26 00:29:54;;;;;;;11.77;2.60;;;5.60;99.90;;;;;;5138307;28;20487;-57
2022/02/26 00:32:20;;;;;;;10.60;2.70;;;5.60;99.90;;;;;;5137761;28;20441;-57
2022/02/26 00:34:47;;;;;;;8.53;2.97;;;5.50;99.90;;;;;;5138252;28;20460;-52
2022/02/26 00:37:15;;;;;;;8.87;2.87;;;5.50;99.90;;;;;;5138481;28;20440;-55
2022/02/26 00:39:43;;;;;;;10.00;2.07;;;5.50;99.90;;;;;;5138968;28;20424;-58
2022/02/26 00:42:10;;;;;;;5.80;2.47;;;5.50;99.90;;;;;;5139117;28;20433;-55
2022/02/26 00:44:38;;;;;;;13.07;6.33;;;5.50;99.90;;;;;;5138457;28;20486;-58
2022/02/26 00:47:05;;;;;;;18.37;2.60;;;5.50;99.90;;;;;;5139012;28;20460;-52
2022/02/26 00:49:50;;;;;;;17.53;2.97;;;5.40;99.90;;;;;;5138535;28;20437;-53
2022/02/26 00:52:21;;;;;;;13.80;3.03;;;5.50;99.90;;;;;;5137921;28;20495;-52
2022/02/26 00:54:47;;;;;;;10.63;2.27;;;5.50;99.90;;;;;;5137868;28;20433;-51
2022/02/26 00:57:14;;;;;;;8.80;2.73;;;5.40;99.90;;;;;;5137644;28;20467;-51
2022/02/26 00:59:41;;;;;;;12.27;3.03;;;5.40;99.90;;;;;;5137424;28;20467;-55
2022/02/26 01:02:08;;;;;;;15.50;2.60;;;5.40;99.90;;;;;;5137519;28;20421;-57
2022/02/26 01:04:36;;;;;;;12.93;3.37;;;5.30;99.90;;;;;;5136856;28;20480;-53
2022/02/26 01:07:03;;;;;;;10.50;3.73;;;5.30;99.90;;;;;;5137733;28;20478;-51
2022/02/26 01:09:31;;;;;;;11.77;2.60;;;5.30;99.90;;;;;;5137188;28;20476;-52
2022/02/26 01:12:00;;;;;;;8.80;4.63;;;5.30;99.90;;;;;;5137203;28;20455;-52
2022/02/26 01:14:27;;;;;;;11.03;2.77;;;5.40;99.90;;;;;;5137208;28;20444;-51
2022/02/26 01:16:54;;;;;;;12.20;3.50;;;5.40;99.90;;;;;;5137211;28;20428;-52
2022/02/26 01:19:23;;;;;;;11.10;1.90;;;5.40;99.90;;;;;;5137135;28;20761;-56
2022/02/26 01:21:50;;;;;;;8.20;1.73;;;5.40;99.90;;;;;;5136717;28;20475;-47
2022/02/26 01:24:17;;;;;;;12.13;2.00;;;5.40;99.90;;;;;;5136718;28;20572;-54
2022/02/26 01:26:47;;;;;;;9.90;2.13;;;5.40;99.90;;;;;;5137103;28;20436;-52
2022/02/26 01:29:14;;;;;;;5.80;2.53;;;5.50;99.90;;;;;;5137053;28;20415;-49
2022/02/26 01:31:41;;;;;;;12.50;2.77;;;5.50;99.90;;;;;;5136848;28;20505;-54
2022/02/26 01:34:08;;;;;;;17.63;2.00;;;5.40;99.90;;;;;;5136678;28;20460;-49
2022/02/26 01:36:35;;;;;;;12.77;2.67;;;5.40;99.90;;;;;;5136973;28;20440;-49
2022/02/26 01:39:04;;;;;;;5.27;1.60;;;5.40;99.90;;;;;;5136621;28;20445;-47
2022/02/26 01:41:31;;;;;;;4.63;2.00;;;5.40;99.90;;;;;;5136775;28;20421;-53
2022/02/26 01:44:00;;;;;;;16.33;2.47;;;5.40;99.90;;;;;;5136576;28;20480;-56
2022/02/26 01:46:27;;;;;;;11.67;2.80;;;5.50;99.90;;;;;;5136775;28;20474;-50
2022/02/26 01:48:55;;;;;;;6.53;1.87;;;5.40;99.90;;;;;;5136684;28;20462;-49
2022/02/26 01:51:22;;;;;;;8.07;2.53;;;5.40;99.90;;;;;;5136648;28;20464;-54
2022/02/26 01:53:49;;;;;;;8.10;1.93;;;5.40;99.90;;;;;;5136652;28;20401;-48
2022/02/26 01:56:19;;;;;;;10.70;2.13;;;5.40;99.90;;;;;;5136192;28;20432;-55
2022/02/26 01:58:46;;;;;;;13.17;3.20;;;5.40;99.90;;;;;;5136669;28;20461;-52
2022/02/26 02:01:14;;;;;;;10.43;2.77;;;5.40;99.90;;;;;;5137127;28;20441;-55
2022/02/26 02:03:41;;;;;;;18.33;3.00;;;5.40;99.90;;;;;;5136770;28;20506;-53
2022/02/26 02:06:08;;;;;;;12.47;2.13;;;5.30;99.90;;;;;;5137271;28;20512;-55
2022/02/26 02:08:36;;;;;;;22.20;3.30;;;5.30;99.90;;;;;;5135983;28;20448;-55
2022/02/26 02:11:03;;;;;;;13.10;2.70;;;5.40;99.90;;;;;;5136450;28;20456;-51
2022/02/26 02:13:29;;;;;;;14.37;4.17;;;5.40;99.90;;;;;;5137188;28;20448;-61
2022/02/26 02:15:56;;;;;;;7.23;2.87;;;5.40;99.90;;;;;;5137178;28;20444;-56
2022/02/26 02:18:24;;;;;;;14.13;2.57;;;5.40;99.90;;;;;;5136951;28;20416;-52
2022/02/26 02:20:53;;;;;;;5.80;2.33;;;5.40;99.90;;;;;;5136581;28;20502;-52
2022/02/26 02:23:21;;;;;;;6.80;2.30;;;5.40;99.90;;;;;;5136114;28;20507;-55
2022/02/26 02:25:48;;;;;;;12.57;4.00;;;5.40;99.90;;;;;;5136974;28;20460;-55
2022/02/26 02:28:15;;;;;;;9.77;2.10;;;5.40;99.90;;;;;;5136921;28;20456;-55
2022/02/26 02:30:42;;;;;;;6.70;2.60;;;5.40;99.90;;;;;;5137348;28;20448;-51
2022/02/26 02:33:09;;;;;;;20.03;3.00;;;5.40;99.90;;;;;;5137275;28;20425;-51
2022/02/26 02:35:42;;;;;;;11.00;4.07;;;5.40;99.90;;;;;;5137254;28;20451;-60
2022/02/26 02:38:10;;;;;;;14.30;4.53;;;5.40;99.90;;;;;;5137006;28;20452;-54
2022/02/26 02:40:39;;;;;;;14.70;3.67;;;5.40;99.90;;;;;;5136808;28;20441;-58
2022/02/26 02:43:06;;;;;;;12.37;2.33;;;5.40;99.90;;;;;;5136259;28;20500;-57
2022/02/26 02:45:34;;;;;;;14.17;3.77;;;5.40;99.90;;;;;;5136248;28;20512;-55
2022/02/26 02:48:01;;;;;;;17.60;3.30;;;5.40;99.90;;;;;;5135914;28;20654;-56
2022/02/26 02:50:28;;;;;;;20.50;3.00;;;5.30;99.90;;;;;;5136552;28;20440;-55
2022/02/26 02:52:55;;;;;;;6.63;2.80;;;5.40;99.90;;;;;;5136376;28;20461;-55
2022/02/26 02:55:22;;;;;;;12.53;3.93;;;5.40;99.90;;;;;;5136197;28;20469;-55
2022/02/26 02:57:52;;;;;;;5.33;3.07;;;5.40;99.90;;;;;;5136019;28;20462;-54
2022/02/26 03:00:21;;;;;;;18.07;4.20;;;5.40;99.90;;;;;;5136247;28;20942;-52
2022/02/26 03:02:48;;;;;;;12.10;2.70;;;5.40;99.90;;;;;;5136323;28;20437;-57
2022/02/26 03:05:18;;;;;;;13.40;3.50;;;5.40;99.90;;;;;;5136160;28;20515;-56
2022/02/26 03:07:45;;;;;;;6.17;2.40;;;5.40;99.90;;;;;;5136269;28;20520;-53
2022/02/26 03:10:12;;;;;;;16.57;3.70;;;5.40;99.90;;;;;;5135921;28;20469;-56
2022/02/26 03:12:39;;;;;;;19.00;4.67;;;5.30;99.90;;;;;;5136079;28;20437;-52
2022/02/26 03:15:10;;;;;;;13.00;2.67;;;5.40;99.90;;;;;;5135835;28;20421;-58
2022/02/26 03:17:37;;;;;;;13.20;2.67;;;5.40;99.90;;;;;;5135983;28;20444;-57
2022/02/26 03:20:05;;;;;;;16.33;3.10;;;5.40;99.90;;;;;;5136035;28;20458;-54
2022/02/26 03:22:32;;;;;;;17.73;2.47;;;5.30;99.90;;;;;;5136173;28;20469;-55
2022/02/26 03:24:58;;;;;;;8.80;3.17;;;5.30;99.90;;;;;;5135403;28;20478;-54
2022/02/26 03:27:27;;;;;;;29.93;3.03;;;5.40;99.90;;;;;;5136213;28;20472;-53
2022/02/26 03:29:54;;;;;;;19.20;4.90;;;5.50;99.90;;;;;;5139439;28;20451;-56
2022/02/26 03:32:22;;;;;;;8.87;2.53;;;5.50;99.90;;;;;;5139804;28;20468;-53
2022/02/26 03:34:50;;;;;;;7.27;2.60;;;5.50;99.90;;;;;;5139597;28;20449;-55
2022/02/26 03:37:17;;;;;;;8.90;2.40;;;5.40;99.90;;;;;;5139439;28;20480;-54
2022/02/26 03:39:44;;;;;;;10.23;2.30;;;5.40;99.90;;;;;;5139237;28;20468;-58
2022/02/26 03:42:12;;;;;;;13.83;2.57;;;5.30;99.90;;;;;;5139543;28;20456;-53
2022/02/26 03:44:42;;;;;;;5.60;2.37;;;5.30;99.90;;;;;;5139189;28;20480;-54
2022/02/26 03:47:09;;;;;;;8.83;2.90;;;5.30;99.90;;;;;;5139542;28;20433;-55
2022/02/26 03:49:37;;;;;;;23.43;3.33;;;5.40;99.90;;;;;;5139964;28;20465;-53
2022/02/26 03:52:05;;;;;;;21.70;4.83;;;5.30;99.90;;;;;;5139564;28;20440;-51
2022/02/26 03:54:33;;;;;;;12.90;2.80;;;5.30;99.90;;;;;;5138898;28;20456;-55
2022/02/26 03:57:00;;;;;;;15.43;2.83;;;5.30;99.90;;;;;;5139728;28;20440;-56
2022/02/26 03:59:26;;;;;;;15.40;3.00;;;5.30;99.90;;;;;;5139677;28;20470;-56
2022/02/26 04:01:56;;;;;;;8.23;2.50;;;5.30;99.90;;;;;;5138877;28;20444;-58
2022/02/26 04:04:23;;;;;;;22.73;4.07;;;5.30;99.90;;;;;;5138833;28;20460;-56
2022/02/26 04:06:51;;;;;;;6.50;2.20;;;5.30;99.90;;;;;;5139069;28;20464;-55
2022/02/26 04:09:18;;;;;;;8.30;2.90;;;5.30;99.90;;;;;;5139365;28;20425;-55
2022/02/26 04:11:45;;;;;;;13.73;3.43;;;5.30;99.90;;;;;;5139139;28;20467;-55
2022/02/26 04:14:12;;;;;;;8.33;3.60;;;5.30;99.90;;;;;;5138963;28;20463;-57
2022/02/26 04:16:38;;;;;;;18.20;3.27;;;5.30;99.90;;;;;;5138993;28;20463;-57
2022/02/26 04:19:06;;;;;;;11.53;2.93;;;5.20;99.90;;;;;;5139414;28;20424;-54
2022/02/26 04:21:33;;;;;;;17.27;4.30;;;5.20;99.90;;;;;;5139085;28;20444;-54
2022/02/26 04:24:01;;;;;;;24.67;3.80;;;5.20;99.90;;;;;;5139167;28;20473;-57
2022/02/26 04:26:28;;;;;;;14.97;3.37;;;5.20;99.90;;;;;;5138611;28;20452;-54
2022/02/26 04:28:56;;;;;;;9.60;3.00;;;5.20;99.90;;;;;;5138806;28;20494;-58
2022/02/26 04:31:23;;;;;;;14.57;2.47;;;5.30;99.90;;;;;;5139080;28;20425;-57
2022/02/26 04:33:50;;;;;;;16.97;3.23;;;5.30;99.90;;;;;;5138436;28;20453;-58
2022/02/26 04:36:17;;;;;;;10.17;2.53;;;5.30;99.90;;;;;;5138493;28;20437;-56
2022/02/26 04:38:44;;;;;;;9.83;3.33;;;5.20;99.90;;;;;;5138732;28;20454;-51
2022/02/26 04:41:13;;;;;;;15.20;2.53;;;5.20;99.90;;;;;;5138630;28;20443;-56
2022/02/26 04:43:42;;;;;;;14.97;3.53;;;5.10;99.90;;;;;;5138973;28;20925;-56
2022/02/26 04:46:10;;;;;;;10.77;3.80;;;5.10;99.90;;;;;;5138655;28;20454;-54
2022/02/26 04:48:37;;;;;;;7.13;2.33;;;5.10;99.90;;;;;;5138228;28;20471;-57
2022/02/26 04:51:06;;;;;;;12.53;3.13;;;5.20;99.90;;;;;;5138155;28;20490;-54
2022/02/26 04:53:32;;;;;;;16.83;2.93;;;5.20;99.90;;;;;;5138289;28;20444;-53
2022/02/26 04:55:59;;;;;;;22.47;4.47;;;5.20;99.90;;;;;;5138553;28;20457;-54
2022/02/26 04:58:27;;;;;;;14.57;2.50;;;5.20;99.90;;;;;;5138058;28;20531;-53
2022/02/26 05:00:54;;;;;;;14.33;2.40;;;5.20;99.90;;;;;;5138156;28;20484;-53
2022/02/26 05:03:21;;;;;;;8.50;2.30;;;5.20;99.90;;;;;;5138149;28;20489;-57
2022/02/26 05:05:47;;;;;;;6.20;1.90;;;5.30;99.90;;;;;;5137978;28;20468;-57
2022/02/26 05:08:14;;;;;;;6.60;3.07;;;5.30;99.90;;;;;;5137358;28;20453;-56
2022/02/26 05:10:41;;;;;;;13.90;3.50;;;5.30;99.90;;;;;;5137015;28;20481;-55
2022/02/26 05:13:08;;;;;;;18.67;4.00;;;5.30;99.90;;;;;;5137444;28;20456;-56
2022/02/26 05:15:36;;;;;;;17.33;2.80;;;5.30;99.90;;;;;;5136959;28;20449;-59
2022/02/26 05:18:03;;;;;;;10.60;2.63;;;5.30;99.90;;;;;;5137227;28;20497;-57
2022/02/26 05:20:30;;;;;;;5.90;1.87;;;5.40;99.90;;;;;;5137026;28;20477;-55
2022/02/26 05:22:57;;;;;;;9.23;2.57;;;5.40;99.90;;;;;;5136677;28;20445;-58
2022/02/26 05:25:24;;;;;;;13.20;3.17;;;5.40;99.90;;;;;;5136063;28;20464;-54
2022/02/26 05:27:51;;;;;;;25.73;3.73;;;5.50;99.90;;;;;;5136122;28;20462;-57
2022/02/26 05:30:18;;;;;;;4.73;2.60;;;5.60;99.90;;;;;;5136494;28;20464;-58
2022/02/26 05:32:47;;;;;;;11.37;2.47;;;5.60;99.90;;;;;;5136707;28;20444;-57
2022/02/26 05:35:13;;;;;;;13.90;3.23;;;5.70;99.90;;;;;;5136040;28;20473;-57
2022/02/26 05:37:40;;;;;;;5.00;2.77;;;5.70;99.90;;;;;;5136109;28;20437;-55
2022/02/26 05:40:08;;;;;;;15.23;2.57;;;5.70;99.90;;;;;;5135905;28;20444;-55
2022/02/26 05:42:38;;;;;;;26.83;5.00;;;5.80;99.90;;;;;;5136201;28;20409;-58
2022/02/26 05:45:05;;;;;;;9.20;2.00;;;5.80;99.90;;;;;;5135763;28;20461;-56
2022/02/26 05:47:32;;;;;;;13.23;3.13;;;5.80;99.90;;;;;;5136030;28;20497;-49
2022/02/26 05:50:00;;;;;;;7.60;2.50;;;5.80;99.90;;;;;;5135086;28;20453;-56
2022/02/26 05:52:29;;;;;;;6.50;2.17;;;5.90;99.90;;;;;;5136171;28;20551;-56
2022/02/26 05:54:56;;;;;;;24.70;2.30;;;5.90;99.90;;;;;;5136239;28;20479;-59
2022/02/26 05:57:23;;;;;;;7.37;2.87;;;5.90;99.90;;;;;;5136373;28;20464;-58
2022/02/26 05:59:49;;;;;;;16.07;2.50;;;5.90;99.90;;;;;;5136449;28;20462;-60
2022/02/26 06:02:16;;;;;;;20.37;4.10;;;5.90;99.90;;;;;;5131747;28;20448;-55
2022/02/26 06:04:44;;;;;;;8.93;2.57;;;5.90;99.90;;;;;;5115725;28;20512;-57
2022/02/26 06:07:12;;;;;;;10.30;2.27;;;5.90;99.90;;;;;;5115417;28;20445;-53
2022/02/26 06:09:38;;;;;;;17.47;2.73;;;5.90;99.90;;;;;;5115524;28;20455;-57
2022/02/26 06:12:06;;;;;;;11.63;2.50;;;5.90;99.90;;;;;;5115604;28;20444;-57
2022/02/26 06:14:33;;;;;;;15.57;2.83;;;5.90;99.90;;;;;;5115188;28;20461;-57
2022/02/26 06:16:59;;;;;;;15.83;2.60;;;5.90;99.90;;;;;;5115223;28;20509;-56
2022/02/26 06:19:26;;;;;;;17.80;3.53;;;5.80;99.90;;;;;;5115466;28;20476;-57
2022/02/26 06:21:53;;;;;;;7.27;2.57;;;5.80;99.90;;;;;;5114378;28;20482;-57
2022/02/26 06:24:21;;;;;;;9.40;2.13;;;5.90;99.90;;;;;;5115019;28;20521;-57
2022/02/26 06:26:49;;;;;;;9.60;2.67;;;5.80;99.90;;;;;;5120590;28;20470;-59
2022/02/26 06:29:16;;;;;;;9.90;3.67;;;5.80;99.90;;;;;;5135091;28;20845;-52
2022/02/26 06:31:44;;;;;;;19.23;5.60;;;5.70;99.90;;;;;;5135474;28;20440;-57
2022/02/26 06:34:11;;;;;;;3.93;1.63;;;5.70;99.90;;;;;;5135384;28;20444;-55
2022/02/26 06:36:39;;;;;;;12.70;3.20;;;5.70;99.90;;;;;;5135363;28;20490;-49
2022/02/26 06:39:06;;;;;;;12.33;3.23;;;5.70;99.90;;;;;;5135318;28;20440;-57
2022/02/26 06:41:34;;;;;;;9.20;2.30;;;5.60;99.90;;;;;;5134848;28;20476;-55
2022/02/26 06:44:01;;;;;;;9.40;2.83;;;5.60;99.90;;;;;;5134934;28;20440;-52
2022/02/26 06:46:28;;;;;;;7.77;2.80;;;5.60;99.90;;;;;;5135130;28;20529;-55
2022/02/26 06:48:55;;;;;;;12.63;2.60;;;5.60;99.90;;;;;;5135328;28;20444;-63
2022/02/26 06:51:22;;;;;;;27.33;3.67;;;5.60;99.90;;;;;;5134242;28;20514;-51
2022/02/26 06:53:49;;;;;;;20.07;3.00;;;5.50;99.90;;;;;;5135447;28;20450;-56
2022/02/26 06:56:18;;;;;;;5.50;2.67;;;5.50;99.90;;;;;;5135177;28;20472;-55
2022/02/26 06:58:46;;;;;;;9.03;2.77;;;5.60;99.90;;;;;;5135073;28;20774;-67
2022/02/26 07:01:15;;;;;;;14.47;3.07;;;5.70;99.90;;;;;;5134470;28;20453;-61
2022/02/26 07:03:42;;;;;;;7.10;1.83;;;5.70;99.90;;;;;;5137035;28;20421;-56
2022/02/26 07:06:08;;;;;;;11.13;3.33;;;5.70;99.90;;;;;;5135115;28;20484;-59
2022/02/26 07:08:35;;;;;;;9.03;2.90;;;5.80;99.90;;;;;;5125184;28;20424;-57
2022/02/26 07:11:02;;;;;;;7.23;3.10;;;5.80;99.90;;;;;;5123692;28;20441;-56
2022/02/26 07:13:29;;;;;;;16.83;5.43;;;5.80;99.90;;;;;;5123968;28;20511;-57
2022/02/26 07:16:00;;;;;;;6.00;2.17;;;5.80;99.90;;;;;;5123829;28;20437;-57
2022/02/26 07:18:27;;;;;;;10.87;3.40;;;5.80;99.90;;;;;;5123454;28;21020;-59
2022/02/26 07:20:53;;;;;;;12.20;3.33;;;5.90;99.90;;;;;;5122977;27;20448;-57
2022/02/26 07:23:20;;;;;;;5.63;2.27;;;5.90;99.90;;;;;;5123018;28;20514;-58
2022/02/26 07:25:50;;;;;;;11.27;3.47;;;6.10;99.90;;;;;;5123079;28;21097;-57
2022/02/26 07:28:16;;;;;;;11.20;2.97;;;6.10;99.90;;;;;;5122959;28;20450;-56
2022/02/26 07:30:44;;;;;;;19.13;3.70;;;6.10;99.90;;;;;;5123351;28;20452;-54
2022/02/26 07:33:12;;;;;;;15.00;2.60;;;6.10;99.90;;;;;;5123551;28;20476;-51
2022/02/26 07:35:38;;;;;;;4.60;1.70;;;6.20;99.90;;;;;;5122093;28;20444;-52
2022/02/26 07:38:05;;;;;;;5.03;2.20;;;6.20;99.90;;;;;;5125520;28;20611;-51
2022/02/26 07:40:32;;;;;;;6.07;2.20;;;6.20;99.90;;;;;;5125323;28;20898;-52
2022/02/26 07:42:59;;;;;;;5.13;1.97;;;6.20;99.90;;;;;;5121878;28;20456;-51
2022/02/26 07:45:26;;;;;;;11.60;2.30;;;6.30;99.90;;;;;;5121199;28;20537;-48
2022/02/26 07:47:52;;;;;;;13.97;3.10;;;6.30;99.90;;;;;;5121038;28;20472;-51
2022/02/26 07:50:23;;;;;;;7.77;1.83;;;6.20;99.90;;;;;;5121379;28;20433;-55
2022/02/26 07:52:49;;;;;;;10.63;2.60;;;6.30;99.90;;;;;;5120620;28;20461;-53
2022/02/26 07:55:16;;;;;;;13.77;2.83;;;6.30;99.90;;;;;;5120788;28;20436;-50
2022/02/26 07:57:43;;;;;;;14.87;2.77;;;6.30;99.90;;;;;;5120919;28;20471;-52
2022/02/26 08:00:11;;;;;;;14.10;2.53;;;6.40;99.90;;;;;;5121204;28;20421;-54
2022/02/26 08:02:38;;;;;;;7.87;2.20;;;6.40;99.90;;;;;;5120549;28;20777;-52
2022/02/26 08:05:05;;;;;;;12.77;3.23;;;6.40;99.90;;;;;;5121387;28;20480;-55
2022/02/26 08:07:33;;;;;;;6.83;2.30;;;6.40;99.90;;;;;;5123070;28;20461;-52
2022/02/26 08:10:00;;;;;;;11.43;3.10;;;6.50;99.90;;;;;;5122209;28;20461;-52
2022/02/26 08:12:27;;;;;;;4.17;1.63;;;6.40;99.90;;;;;;5122043;28;20508;-52
2022/02/26 08:14:53;;;;;;;11.70;2.30;;;6.50;99.90;;;;;;5122621;28;20436;-58
2022/02/26 08:17:20;;;;;;;6.80;2.00;;;6.50;99.90;;;;;;5121624;28;20449;-55
2022/02/26 08:19:47;;;;;;;7.67;2.03;;;6.50;99.90;;;;;;5121224;28;20638;-57
2022/02/26 08:22:13;;;;;;;10.87;2.87;;;6.50;99.90;;;;;;5120603;28;20481;-54
2022/02/26 08:24:41;;;;;;;8.43;1.90;;;6.60;99.90;;;;;;5121104;28;20444;-57
2022/02/26 08:27:08;;;;;;;11.70;2.07;;;6.60;99.90;;;;;;5120874;28;20473;-58
2022/02/26 08:29:35;;;;;;;9.30;2.07;;;6.60;99.90;;;;;;5120744;28;20486;-57
2022/02/26 08:32:01;;;;;;;8.10;3.17;;;6.60;99.90;;;;;;5120923;28;20463;-50
2022/02/26 08:34:28;;;;;;;11.10;2.40;;;6.60;99.90;;;;;;5123924;28;20498;-56
2022/02/26 08:36:55;;;;;;;5.40;2.20;;;6.70;99.90;;;;;;5121699;28;20456;-53
2022/02/26 08:39:22;;;;;;;11.17;2.30;;;6.80;99.90;;;;;;5122430;28;20456;-59
2022/02/26 08:41:50;;;;;;;9.20;2.83;;;6.80;99.90;;;;;;5123857;28;20882;-57
2022/02/26 08:44:17;;;;;;;12.33;3.63;;;6.90;99.90;;;;;;5122208;28;20518;-56
2022/02/26 08:46:44;;;;;;;3.97;1.80;;;6.90;99.90;;;;;;5120236;28;20533;-53
2022/02/26 08:49:10;;;;;;;13.33;2.43;;;6.90;99.90;;;;;;5120759;28;20445;-57
2022/02/26 08:51:37;;;;;;;11.13;2.97;;;7.00;99.90;;;;;;5120150;28;20469;-57
2022/02/26 08:54:04;;;;;;;7.67;2.60;;;7.00;99.90;;;;;;5120015;28;20460;-57
2022/02/26 08:56:31;;;;;;;7.97;2.30;;;7.00;99.90;;;;;;5120416;28;20440;-58
2022/02/26 08:58:59;;;;;;;6.40;2.30;;;7.00;99.90;;;;;;5120185;28;20457;-54
2022/02/26 09:01:26;;;;;;;9.07;3.10;;;7.00;99.90;;;;;;5120570;28;20444;-56
2022/02/26 09:03:53;;;;;;;6.73;2.13;;;7.00;99.90;;;;;;5120443;28;20774;-53
2022/02/26 09:06:20;;;;;;;5.30;3.13;;;7.00;99.90;;;;;;5121724;28;20476;-56
2022/02/26 09:08:47;;;;;;;5.93;2.80;;;7.00;99.90;;;;;;5124559;28;20537;-57
2022/02/26 09:11:14;;;;;;;2.87;1.67;;;7.00;99.90;;;;;;5120971;28;20871;-56
2022/02/26 09:13:45;;;;;;;7.27;2.00;;;7.00;99.90;;;;;;5120305;28;20807;-57
2022/02/26 09:16:14;;;;;;;9.30;2.20;;;7.00;99.90;;;;;;5122459;28;20436;-62
2022/02/26 09:18:42;;;;;;;7.47;2.40;;;7.00;99.90;;;;;;5122531;28;20457;-58
2022/02/26 09:21:09;;;;;;;10.87;3.30;;;7.10;99.90;;;;;;5119311;28;20470;-58
2022/02/26 09:23:36;;;;;;;8.10;3.57;;;7.10;99.90;;;;;;5118967;28;20448;-57
2022/02/26 09:26:04;;;;;;;9.63;1.80;;;7.10;99.90;;;;;;5115315;28;20484;-55
2022/02/26 09:28:33;;;;;;;7.00;2.10;;;7.10;99.90;;;;;;5116759;28;20429;-61
2022/02/26 09:30:59;;;;;;;9.17;2.83;;;7.10;99.90;;;;;;5117405;28;20524;-57
2022/02/26 09:33:30;;;;;;;5.80;2.90;;;7.10;99.90;;;;;;5116028;28;20498;-55
2022/02/26 09:35:57;;;;;;;18.83;3.40;;;7.10;99.90;;;;;;5112365;28;20522;-58
2022/02/26 09:38:24;;;;;;;10.00;2.13;;;7.10;99.90;;;;;;5115979;28;20460;-58
2022/02/26 09:40:53;;;;;;;7.10;2.23;;;7.20;99.90;;;;;;5115983;28;20475;-55
2022/02/26 09:43:19;;;;;;;7.27;2.20;;;7.20;99.90;;;;;;5115956;28;20445;-58
2022/02/26 09:45:46;;;;;;;8.67;2.63;;;7.30;99.90;;;;;;5116208;28;20862;-55
2022/02/26 09:48:13;;;;;;;11.70;2.37;;;8.10;99.90;;;;;;5116032;28;20490;-54
2022/02/26 09:50:41;;;;;;;6.00;2.20;;;8.40;99.90;;;;;;5117482;28;20464;-62
2022/02/26 09:53:08;;;;;;;5.47;2.47;;;8.60;99.90;;;;;;5117753;28;20521;-57
2022/02/26 09:55:35;;;;;;;9.30;3.20;;;8.80;99.90;;;;;;5115568;28;20441;-56
2022/02/26 09:58:02;;;;;;;4.10;2.47;;;8.70;99.90;;;;;;5115769;28;20523;-53
2022/02/26 10:00:29;;;;;;;7.30;2.47;;;8.60;99.90;;;;;;5115439;28;20497;-56
2022/02/26 10:02:56;;;;;;;5.00;2.27;;;8.50;99.90;;;;;;5115188;28;20464;-58
2022/02/26 10:05:22;;;;;;;2.70;1.80;;;8.40;99.90;;;;;;5114256;28;20447;-52
2022/02/26 10:07:51;;;;;;;7.10;1.80;;;8.20;99.90;;;;;;5114149;28;20469;-55
2022/02/26 10:10:19;;;;;;;7.37;2.07;;;8.00;99.90;;;;;;5114458;28;20520;-56
2022/02/26 10:12:52;;;;;;;11.17;3.03;;;7.90;99.90;;;;;;5116163;28;20984;-62
2022/02/26 10:15:24;;;;;;;7.77;1.80;;;7.90;99.90;;;;;;5116413;28;20439;-55
2022/02/26 10:18:00;;;;;;;13.17;2.50;;;8.00;99.90;;;;;;5115080;28;20480;-56
2022/02/26 10:20:27;;;;;;;8.03;2.67;;;8.00;99.90;;;;;;5114401;28;20456;-57
2022/02/26 10:22:56;;;;;;;5.97;2.03;;;8.00;99.90;;;;;;5115152;28;20425;-54
2022/02/26 10:25:26;;;;;;;11.40;2.93;;;8.00;99.90;;;;;;5115152;28;20479;-52
2022/02/26 10:27:55;;;;;;;5.83;2.53;;;8.00;99.90;;;;;;5115566;28;20497;-53
2022/02/26 10:30:24;;;;;;;9.67;2.17;;;8.10;99.90;;;;;;5115246;28;20467;-57
2022/02/26 10:33:05;;;;;;;5.23;2.70;;;8.10;99.90;;;;;;5115063;28;20511;-55
2022/02/26 10:35:42;;;;;;;10.00;2.43;;;8.10;99.90;;;;;;5117753;28;20824;-54
2022/02/26 10:38:22;;;;;;;7.97;4.70;;;8.20;99.90;;;;;;5119356;28;20493;-57
2022/02/26 10:40:57;;;;;;;10.57;2.87;;;8.20;99.90;;;;;;5119378;28;20466;-58
2022/02/26 10:43:44;;;;;;;3.80;2.33;;;8.20;99.90;;;;;;5119388;28;20452;-50
2022/02/26 10:46:23;;;;;;;10.43;2.40;;;8.10;99.90;;;;;;5119494;28;20864;-60
2022/02/26 10:48:52;;;;;;;5.27;2.10;;;8.10;99.90;;;;;;5121950;28;20499;-57
2022/02/26 10:51:20;;;;;;;8.33;2.03;;;8.10;99.90;;;;;;5119390;28;20475;-56
2022/02/26 10:53:53;;;;;;;7.53;2.13;;;8.00;99.90;;;;;;5119097;28;20496;-58
2022/02/26 10:56:20;;;;;;;4.03;2.20;;;8.00;99.90;;;;;;5119177;28;20456;-56
2022/02/26 10:58:47;;;;;;;4.57;2.40;;;7.90;99.90;;;;;;5118832;28;20879;-58
2022/02/26 11:01:16;;;;;;;8.20;2.30;;;7.80;99.90;;;;;;5119143;28;20444;-56
2022/02/26 11:03:43;;;;;;;7.00;2.10;;;7.90;99.90;;;;;;5118948;28;20464;-55
2022/02/26 11:06:12;;;;;;;4.60;2.40;;;7.90;99.90;;;;;;5119090;28;20468;-56
2022/02/26 11:08:39;;;;;;;5.53;1.70;;;8.00;99.90;;;;;;5119913;28;20472;-58
2022/02/26 11:11:09;;;;;;;16.23;2.00;;;8.10;99.90;;;;;;5121238;28;20444;-57
2022/02/26 11:13:37;;;;;;;8.30;1.90;;;8.20;99.90;;;;;;5118898;28;20922;-53
2022/02/26 11:16:06;;;;;;;10.57;2.30;;;8.20;99.90;;;;;;5118714;28;20940;-51
2022/02/26 11:18:40;;;;;;;11.60;2.67;;;8.30;99.90;;;;;;5118756;28;20467;-53
2022/02/26 11:21:09;;;;;;;6.60;2.00;;;8.20;99.90;;;;;;5118627;28;20475;-56
2022/02/26 11:23:36;;;;;;;9.10;4.10;;;8.30;99.90;;;;;;5118719;28;20487;-57
2022/02/26 11:26:03;;;;;;;10.70;1.93;;;8.30;99.90;;;;;;5118445;28;20476;-57
2022/02/26 11:28:33;;;;;;;10.00;2.00;;;8.30;99.90;;;;;;5118768;28;20505;-55
2022/02/26 11:31:04;;;;;;;5.40;2.13;;;8.40;99.90;;;;;;5120789;28;20927;-59
2022/02/26 11:33:32;;;;;;;10.00;1.93;;;8.40;99.90;;;;;;5118572;28;20491;-56
2022/02/26 11:36:01;;;;;;;3.93;1.80;;;8.40;99.90;;;;;;5118226;28;20458;-56
2022/02/26 11:38:32;;;;;;;6.20;2.30;;;8.50;99.90;;;;;;5120823;28;20455;-55
2022/02/26 11:41:19;;;;;;;8.20;2.20;;;8.50;99.90;;;;;;5119093;28;20935;-56
2022/02/26 11:43:49;;;;;;;5.33;2.17;;;8.60;99.90;;;;;;5118003;28;20518;-53
2022/02/26 11:46:36;;;;;;;3.20;2.10;;;8.60;99.90;;;;;;5117849;28;20544;-56
2022/02/26 11:49:18;;;;;;;5.37;1.47;;;8.60;99.90;;;;;;5117392;28;20489;-56
2022/02/26 11:51:46;;;;;;;11.00;2.43;;;8.70;99.90;;;;;;5118092;28;20547;-57
2022/02/26 11:54:16;;;;;;;7.30;1.80;;;8.70;99.90;;;;;;5118664;28;20452;-58
2022/02/26 11:56:45;;;;;;;5.23;2.70;;;8.70;99.90;;;;;;5118275;28;20440;-55
2022/02/26 11:59:13;;;;;;;7.73;2.40;;;8.70;99.90;;;;;;5118166;28;20433;-57
2022/02/26 12:02:05;;;;;;;3.17;1.53;;;8.70;99.90;;;;;;5118222;28;20447;-58
2022/02/26 12:04:46;;;;;;;8.10;2.80;;;8.70;99.90;;;;;;5118649;28;20501;-56
2022/02/26 12:07:29;;;;;;;6.00;2.40;;;8.60;99.90;;;;;;5118335;28;20484;-57
2022/02/26 12:10:00;;;;;;;4.83;2.00;;;8.70;99.90;;;;;;5119707;28;20459;-55
2022/02/26 12:12:38;;;;;;;8.90;1.90;;;8.70;99.90;;;;;;5117696;28;20917;-57
2022/02/26 12:15:15;;;;;;;2.87;2.03;;;8.80;99.90;;;;;;5117611;28;20441;-56
2022/02/26 12:17:44;;;;;;;6.50;1.93;;;8.70;99.90;;;;;;5117880;28;20473;-57
2022/02/26 12:20:15;;;;;;;7.23;2.13;;;8.80;99.90;;;;;;5117668;28;20501;-56
2022/02/26 12:22:45;;;;;;;5.30;3.77;;;8.80;99.90;;;;;;5117111;28;20472;-55
2022/02/26 12:25:13;;;;;;;3.97;1.90;;;8.80;99.90;;;;;;5117364;28;20459;-56
2022/02/26 12:27:40;;;;;;;13.37;3.30;;;8.80;99.90;;;;;;5117089;28;20484;-51
2022/02/26 12:30:10;;;;;;;5.70;2.63;;;8.80;99.90;;;;;;5118231;28;20490;-63
2022/02/26 12:32:51;;;;;;;3.73;2.00;;;8.80;99.90;;;;;;5118938;28;20435;-55
2022/02/26 12:35:18;;;;;;;8.03;2.30;;;8.80;99.90;;;;;;5117341;28;20424;-54
2022/02/26 12:37:46;;;;;;;2.60;1.37;;;8.80;99.90;;;;;;5117015;28;20540;-53
2022/02/26 12:40:15;;;;;;;9.30;2.33;;;8.80;99.90;;;;;;5116953;28;20456;-56
2022/02/26 12:42:44;;;;;;;4.13;1.80;;;8.80;99.90;;;;;;5117166;28;20452;-57
2022/02/26 12:45:14;;;;;;;10.23;2.17;;;8.80;99.90;;;;;;5117225;28;20813;-57
2022/02/26 12:47:41;;;;;;;8.63;2.10;;;8.80;99.90;;;;;;5116756;28;20537;-61
2022/02/26 12:50:11;;;;;;;5.27;1.90;;;8.70;99.90;;;;;;5116655;28;20897;-56
2022/02/26 12:52:40;;;;;;;5.50;2.33;;;8.70;99.90;;;;;;5119255;28;20476;-55
2022/02/26 12:55:08;;;;;;;6.60;2.30;;;8.70;99.90;;;;;;5117648;28;20452;-58
2022/02/26 12:57:36;;;;;;;4.00;1.30;;;8.80;99.90;;;;;;5116928;28;20505;-55